sensor_id;sensor_type;location;lat;lon;timestamp;P1;durP1;ratioP1;P2;durP2;ratioP2
55362;SDS011;41244;49.242;9.060;2022-07-09T00:00:42;7.72;;;3.75;;
55362;SDS011;41244;49.242;9.060;2022-07-09T00:03:08;4.47;;;3.60;;
55362;SDS011;41244;49.242;9.060;2022-07-09T00:05:34;3.30;;;3.08;;
55362;SDS011;41244;49.242;9.060;2022-07-09T00:08:00;4.45;;;3.28;;
55362;SDS011;41244;49.242;9.060;2022-07-09T00:10:26;5.60;;;3.40;;
55362;SDS011;41244;49.242;9.060;2022-07-09T00:12:52;5.85;;;3.85;;
55362;SDS011;41244;49.242;9.060;2022-07-09T00:15:18;3.95;;;3.35;;
55362;SDS011;41244;49.242;9.060;2022-07-09T00:17:44;4.60;;;3.75;;
55362;SDS011;41244;49.242;9.060;2022-07-09T00:20:10;4.97;;;3.78;;
55362;SDS011;41244;49.242;9.060;2022-07-09T00:22:36;4.07;;;3.28;;
55362;SDS011;41244;49.242;9.060;2022-07-09T00:25:02;5.82;;;3.60;;
55362;SDS011;41244;49.242;9.060;2022-07-09T00:27:28;5.93;;;3.40;;
55362;SDS011;41244;49.242;9.060;2022-07-09T00:29:54;5.72;;;3.47;;
55362;SDS011;41244;49.242;9.060;2022-07-09T00:32:20;3.70;;;3.40;;
55362;SDS011;41244;49.242;9.060;2022-07-09T00:34:46;6.93;;;3.28;;
55362;SDS011;41244;49.242;9.060;2022-07-09T00:37:12;8.30;;;3.78;;
55362;SDS011;41244;49.242;9.060;2022-07-09T00:39:38;6.28;;;4.00;;
55362;SDS011;41244;49.242;9.060;2022-07-09T00:42:04;6.15;;;3.65;;
55362;SDS011;41244;49.242;9.060;2022-07-09T00:44:35;5.85;;;3.53;;
55362;SDS011;41244;49.242;9.060;2022-07-09T00:47:01;5.40;;;3.70;;
55362;SDS011;41244;49.242;9.060;2022-07-09T00:49:31;5.95;;;3.38;;
55362;SDS011;41244;49.242;9.060;2022-07-09T00:52:08;4.93;;;3.88;;
55362;SDS011;41244;49.242;9.060;2022-07-09T00:54:36;4.45;;;3.80;;
55362;SDS011;41244;49.242;9.060;2022-07-09T00:57:03;5.53;;;3.53;;
55362;SDS011;41244;49.242;9.060;2022-07-09T00:59:34;5.70;;;3.83;;
55362;SDS011;41244;49.242;9.060;2022-07-09T01:02:02;8.07;;;3.83;;
55362;SDS011;41244;49.242;9.060;2022-07-09T01:04:28;6.22;;;3.63;;
55362;SDS011;41244;49.242;9.060;2022-07-09T01:06:54;5.35;;;3.92;;
55362;SDS011;41244;49.242;9.060;2022-07-09T01:09:22;5.45;;;3.92;;
55362;SDS011;41244;49.242;9.060;2022-07-09T01:11:49;6.50;;;4.13;;
55362;SDS011;41244;49.242;9.060;2022-07-09T01:14:15;5.72;;;3.70;;
55362;SDS011;41244;49.242;9.060;2022-07-09T01:16:41;5.10;;;3.60;;
55362;SDS011;41244;49.242;9.060;2022-07-09T01:19:07;6.60;;;3.90;;
55362;SDS011;41244;49.242;9.060;2022-07-09T01:21:33;4.90;;;3.83;;
55362;SDS011;41244;49.242;9.060;2022-07-09T01:23:59;7.53;;;3.72;;
55362;SDS011;41244;49.242;9.060;2022-07-09T01:26:25;5.93;;;3.85;;
55362;SDS011;41244;49.242;9.060;2022-07-09T01:28:52;8.00;;;3.78;;
55362;SDS011;41244;49.242;9.060;2022-07-09T01:31:18;5.50;;;4.18;;
55362;SDS011;41244;49.242;9.060;2022-07-09T01:33:45;6.47;;;3.80;;
55362;SDS011;41244;49.242;9.060;2022-07-09T01:36:11;5.70;;;4.13;;
55362;SDS011;41244;49.242;9.060;2022-07-09T01:38:37;6.78;;;4.05;;
55362;SDS011;41244;49.242;9.060;2022-07-09T01:41:03;8.95;;;4.15;;
55362;SDS011;41244;49.242;9.060;2022-07-09T01:43:29;4.40;;;3.85;;
55362;SDS011;41244;49.242;9.060;2022-07-09T01:45:58;4.13;;;3.70;;
55362;SDS011;41244;49.242;9.060;2022-07-09T01:48:25;4.28;;;3.80;;
55362;SDS011;41244;49.242;9.060;2022-07-09T01:50:52;4.80;;;4.20;;
55362;SDS011;41244;49.242;9.060;2022-07-09T01:53:19;6.05;;;4.13;;
55362;SDS011;41244;49.242;9.060;2022-07-09T01:55:44;5.60;;;4.25;;
55362;SDS011;41244;49.242;9.060;2022-07-09T01:58:10;5.88;;;3.63;;
55362;SDS011;41244;49.242;9.060;2022-07-09T02:00:36;4.85;;;3.97;;
55362;SDS011;41244;49.242;9.060;2022-07-09T02:03:02;5.28;;;4.10;;
55362;SDS011;41244;49.242;9.060;2022-07-09T02:05:27;7.97;;;4.10;;
55362;SDS011;41244;49.242;9.060;2022-07-09T02:07:54;6.82;;;4.30;;
55362;SDS011;41244;49.242;9.060;2022-07-09T02:10:20;6.47;;;4.13;;
55362;SDS011;41244;49.242;9.060;2022-07-09T02:12:45;7.43;;;4.22;;
55362;SDS011;41244;49.242;9.060;2022-07-09T02:15:11;5.72;;;4.22;;
55362;SDS011;41244;49.242;9.060;2022-07-09T02:17:38;4.65;;;4.20;;
55362;SDS011;41244;49.242;9.060;2022-07-09T02:20:04;7.10;;;4.43;;
55362;SDS011;41244;49.242;9.060;2022-07-09T02:22:31;5.95;;;4.30;;
55362;SDS011;41244;49.242;9.060;2022-07-09T02:24:56;5.57;;;4.35;;
55362;SDS011;41244;49.242;9.060;2022-07-09T02:27:22;5.30;;;4.65;;
55362;SDS011;41244;49.242;9.060;2022-07-09T02:29:48;6.45;;;4.38;;
55362;SDS011;41244;49.242;9.060;2022-07-09T02:32:14;5.13;;;4.32;;
55362;SDS011;41244;49.242;9.060;2022-07-09T02:34:40;7.15;;;5.03;;
55362;SDS011;41244;49.242;9.060;2022-07-09T02:37:05;5.80;;;4.55;;
55362;SDS011;41244;49.242;9.060;2022-07-09T02:39:32;4.93;;;4.25;;
55362;SDS011;41244;49.242;9.060;2022-07-09T02:41:58;5.55;;;4.18;;
55362;SDS011;41244;49.242;9.060;2022-07-09T02:44:24;6.65;;;4.00;;
55362;SDS011;41244;49.242;9.060;2022-07-09T02:46:50;6.43;;;4.82;;
55362;SDS011;41244;49.242;9.060;2022-07-09T02:49:16;6.82;;;4.72;;
55362;SDS011;41244;49.242;9.060;2022-07-09T02:51:42;5.20;;;4.50;;
55362;SDS011;41244;49.242;9.060;2022-07-09T02:54:07;4.80;;;4.32;;
55362;SDS011;41244;49.242;9.060;2022-07-09T02:56:33;5.47;;;4.32;;
55362;SDS011;41244;49.242;9.060;2022-07-09T02:58:59;4.82;;;4.32;;
55362;SDS011;41244;49.242;9.060;2022-07-09T03:01:25;7.85;;;4.68;;
55362;SDS011;41244;49.242;9.060;2022-07-09T03:03:51;5.20;;;4.70;;
55362;SDS011;41244;49.242;9.060;2022-07-09T03:06:17;5.18;;;4.63;;
55362;SDS011;41244;49.242;9.060;2022-07-09T03:08:43;7.70;;;4.80;;
55362;SDS011;41244;49.242;9.060;2022-07-09T03:11:09;6.65;;;4.78;;
55362;SDS011;41244;49.242;9.060;2022-07-09T03:13:35;11.25;;;5.35;;
55362;SDS011;41244;49.242;9.060;2022-07-09T03:16:02;9.27;;;5.03;;
55362;SDS011;41244;49.242;9.060;2022-07-09T03:18:29;6.43;;;4.88;;
55362;SDS011;41244;49.242;9.060;2022-07-09T03:20:55;7.30;;;5.15;;
55362;SDS011;41244;49.242;9.060;2022-07-09T03:23:20;7.32;;;5.07;;
55362;SDS011;41244;49.242;9.060;2022-07-09T03:25:46;5.40;;;4.90;;
55362;SDS011;41244;49.242;9.060;2022-07-09T03:28:12;9.35;;;4.85;;
55362;SDS011;41244;49.242;9.060;2022-07-09T03:30:38;5.70;;;4.93;;
55362;SDS011;41244;49.242;9.060;2022-07-09T03:33:04;5.07;;;4.55;;
55362;SDS011;41244;49.242;9.060;2022-07-09T03:35:29;5.53;;;4.70;;
55362;SDS011;41244;49.242;9.060;2022-07-09T03:37:55;8.68;;;4.65;;
55362;SDS011;41244;49.242;9.060;2022-07-09T03:40:21;7.60;;;4.78;;
55362;SDS011;41244;49.242;9.060;2022-07-09T03:42:47;8.00;;;5.20;;
55362;SDS011;41244;49.242;9.060;2022-07-09T03:45:13;6.10;;;4.40;;
55362;SDS011;41244;49.242;9.060;2022-07-09T03:47:39;6.80;;;4.93;;
55362;SDS011;41244;49.242;9.060;2022-07-09T03:50:05;6.00;;;4.95;;
55362;SDS011;41244;49.242;9.060;2022-07-09T03:52:31;5.32;;;4.25;;
55362;SDS011;41244;49.242;9.060;2022-07-09T03:54:58;6.85;;;4.70;;
55362;SDS011;41244;49.242;9.060;2022-07-09T03:57:23;6.03;;;4.82;;
55362;SDS011;41244;49.242;9.060;2022-07-09T03:59:49;7.47;;;5.10;;
55362;SDS011;41244;49.242;9.060;2022-07-09T04:02:15;5.38;;;4.88;;
55362;SDS011;41244;49.242;9.060;2022-07-09T04:04:41;6.50;;;5.35;;
55362;SDS011;41244;49.242;9.060;2022-07-09T04:07:08;8.15;;;4.53;;
55362;SDS011;41244;49.242;9.060;2022-07-09T04:09:34;5.13;;;4.53;;
55362;SDS011;41244;49.242;9.060;2022-07-09T04:12:00;6.20;;;4.47;;
55362;SDS011;41244;49.242;9.060;2022-07-09T04:14:26;9.82;;;4.60;;
55362;SDS011;41244;49.242;9.060;2022-07-09T04:16:52;6.93;;;4.47;;
55362;SDS011;41244;49.242;9.060;2022-07-09T04:19:17;5.63;;;4.50;;
55362;SDS011;41244;49.242;9.060;2022-07-09T04:21:43;6.10;;;4.63;;
55362;SDS011;41244;49.242;9.060;2022-07-09T04:24:09;6.95;;;4.25;;
55362;SDS011;41244;49.242;9.060;2022-07-09T04:26:35;5.80;;;4.63;;
55362;SDS011;41244;49.242;9.060;2022-07-09T04:29:01;11.73;;;8.27;;
55362;SDS011;41244;49.242;9.060;2022-07-09T04:31:27;6.60;;;5.88;;
55362;SDS011;41244;49.242;9.060;2022-07-09T04:33:52;6.70;;;4.50;;
55362;SDS011;41244;49.242;9.060;2022-07-09T04:36:18;5.68;;;4.53;;
55362;SDS011;41244;49.242;9.060;2022-07-09T04:38:44;5.45;;;4.93;;
55362;SDS011;41244;49.242;9.060;2022-07-09T04:41:10;7.25;;;4.88;;
55362;SDS011;41244;49.242;9.060;2022-07-09T04:43:36;8.35;;;5.05;;
55362;SDS011;41244;49.242;9.060;2022-07-09T04:46:01;9.88;;;5.40;;
55362;SDS011;41244;49.242;9.060;2022-07-09T04:48:28;5.70;;;5.20;;
55362;SDS011;41244;49.242;9.060;2022-07-09T04:50:53;10.10;;;6.07;;
55362;SDS011;41244;49.242;9.060;2022-07-09T04:53:19;9.57;;;5.68;;
55362;SDS011;41244;49.242;9.060;2022-07-09T04:55:45;6.28;;;5.45;;
55362;SDS011;41244;49.242;9.060;2022-07-09T04:58:11;6.68;;;5.35;;
55362;SDS011;41244;49.242;9.060;2022-07-09T05:00:37;8.27;;;5.57;;
55362;SDS011;41244;49.242;9.060;2022-07-09T05:03:02;5.40;;;4.80;;
55362;SDS011;41244;49.242;9.060;2022-07-09T05:05:28;9.82;;;5.28;;
55362;SDS011;41244;49.242;9.060;2022-07-09T05:07:54;9.27;;;5.20;;
55362;SDS011;41244;49.242;9.060;2022-07-09T05:10:20;10.15;;;5.00;;
55362;SDS011;41244;49.242;9.060;2022-07-09T05:12:46;7.13;;;5.00;;
55362;SDS011;41244;49.242;9.060;2022-07-09T05:15:12;7.97;;;5.10;;
55362;SDS011;41244;49.242;9.060;2022-07-09T05:17:39;9.93;;;5.07;;
55362;SDS011;41244;49.242;9.060;2022-07-09T05:20:06;6.45;;;5.03;;
55362;SDS011;41244;49.242;9.060;2022-07-09T05:22:34;8.02;;;4.93;;
55362;SDS011;41244;49.242;9.060;2022-07-09T05:25:02;7.75;;;5.45;;
55362;SDS011;41244;49.242;9.060;2022-07-09T05:27:29;7.00;;;4.82;;
55362;SDS011;41244;49.242;9.060;2022-07-09T05:29:56;11.32;;;5.45;;
55362;SDS011;41244;49.242;9.060;2022-07-09T05:32:22;8.30;;;5.07;;
55362;SDS011;41244;49.242;9.060;2022-07-09T05:34:48;9.18;;;4.88;;
55362;SDS011;41244;49.242;9.060;2022-07-09T05:37:14;7.50;;;5.10;;
55362;SDS011;41244;49.242;9.060;2022-07-09T05:39:40;10.27;;;5.15;;
55362;SDS011;41244;49.242;9.060;2022-07-09T05:42:06;7.55;;;5.10;;
55362;SDS011;41244;49.242;9.060;2022-07-09T05:44:32;6.93;;;5.07;;
55362;SDS011;41244;49.242;9.060;2022-07-09T05:46:58;9.70;;;5.13;;
55362;SDS011;41244;49.242;9.060;2022-07-09T05:49:23;9.82;;;5.30;;
55362;SDS011;41244;49.242;9.060;2022-07-09T05:51:50;7.53;;;5.53;;
55362;SDS011;41244;49.242;9.060;2022-07-09T05:54:16;8.50;;;5.15;;
55362;SDS011;41244;49.242;9.060;2022-07-09T05:56:42;7.78;;;5.22;;
55362;SDS011;41244;49.242;9.060;2022-07-09T05:59:08;8.70;;;5.70;;
55362;SDS011;41244;49.242;9.060;2022-07-09T06:01:34;11.15;;;5.35;;
55362;SDS011;41244;49.242;9.060;2022-07-09T06:04:05;6.97;;;4.90;;
55362;SDS011;41244;49.242;9.060;2022-07-09T06:06:32;8.13;;;5.10;;
55362;SDS011;41244;49.242;9.060;2022-07-09T06:08:58;9.13;;;5.60;;
55362;SDS011;41244;49.242;9.060;2022-07-09T06:11:24;6.85;;;4.72;;
55362;SDS011;41244;49.242;9.060;2022-07-09T06:13:50;8.43;;;5.30;;
55362;SDS011;41244;49.242;9.060;2022-07-09T06:16:16;7.50;;;4.90;;
55362;SDS011;41244;49.242;9.060;2022-07-09T06:18:42;8.02;;;4.68;;
55362;SDS011;41244;49.242;9.060;2022-07-09T06:21:08;9.52;;;5.05;;
55362;SDS011;41244;49.242;9.060;2022-07-09T06:23:34;7.15;;;4.47;;
55362;SDS011;41244;49.242;9.060;2022-07-09T06:26:00;9.15;;;5.15;;
55362;SDS011;41244;49.242;9.060;2022-07-09T06:28:26;7.72;;;5.55;;
55362;SDS011;41244;49.242;9.060;2022-07-09T06:30:51;6.80;;;5.10;;
55362;SDS011;41244;49.242;9.060;2022-07-09T06:33:17;23.67;;;12.90;;
55362;SDS011;41244;49.242;9.060;2022-07-09T06:35:43;8.38;;;4.80;;
55362;SDS011;41244;49.242;9.060;2022-07-09T06:38:09;9.43;;;4.93;;
55362;SDS011;41244;49.242;9.060;2022-07-09T06:40:34;7.47;;;4.93;;
55362;SDS011;41244;49.242;9.060;2022-07-09T06:43:00;12.32;;;5.15;;
55362;SDS011;41244;49.242;9.060;2022-07-09T06:45:26;14.30;;;5.50;;
55362;SDS011;41244;49.242;9.060;2022-07-09T06:47:52;10.50;;;4.93;;
55362;SDS011;41244;49.242;9.060;2022-07-09T06:50:18;8.90;;;4.93;;
55362;SDS011;41244;49.242;9.060;2022-07-09T06:52:44;8.38;;;4.47;;
55362;SDS011;41244;49.242;9.060;2022-07-09T06:55:10;9.27;;;4.90;;
55362;SDS011;41244;49.242;9.060;2022-07-09T06:57:36;8.30;;;4.43;;
55362;SDS011;41244;49.242;9.060;2022-07-09T07:00:04;8.65;;;4.65;;
55362;SDS011;41244;49.242;9.060;2022-07-09T07:02:31;8.15;;;5.38;;
55362;SDS011;41244;49.242;9.060;2022-07-09T07:04:57;6.80;;;5.50;;
55362;SDS011;41244;49.242;9.060;2022-07-09T07:07:22;8.32;;;5.18;;
55362;SDS011;41244;49.242;9.060;2022-07-09T07:09:48;13.20;;;4.93;;
55362;SDS011;41244;49.242;9.060;2022-07-09T07:12:14;8.75;;;5.05;;
55362;SDS011;41244;49.242;9.060;2022-07-09T07:14:40;6.43;;;4.38;;
55362;SDS011;41244;49.242;9.060;2022-07-09T07:17:06;6.30;;;4.25;;
55362;SDS011;41244;49.242;9.060;2022-07-09T07:19:32;8.18;;;4.07;;
55362;SDS011;41244;49.242;9.060;2022-07-09T07:21:58;6.53;;;4.15;;
55362;SDS011;41244;49.242;9.060;2022-07-09T07:24:24;9.05;;;3.85;;
55362;SDS011;41244;49.242;9.060;2022-07-09T07:26:50;7.35;;;4.30;;
55362;SDS011;41244;49.242;9.060;2022-07-09T07:29:16;7.97;;;3.80;;
55362;SDS011;41244;49.242;9.060;2022-07-09T07:31:42;7.80;;;3.70;;
55362;SDS011;41244;49.242;9.060;2022-07-09T07:34:08;7.50;;;3.92;;
55362;SDS011;41244;49.242;9.060;2022-07-09T07:36:33;6.45;;;3.63;;
55362;SDS011;41244;49.242;9.060;2022-07-09T07:38:59;9.57;;;4.70;;
55362;SDS011;41244;49.242;9.060;2022-07-09T07:41:25;7.15;;;3.78;;
55362;SDS011;41244;49.242;9.060;2022-07-09T07:43:51;7.88;;;4.50;;
55362;SDS011;41244;49.242;9.060;2022-07-09T07:46:17;15.35;;;8.07;;
55362;SDS011;41244;49.242;9.060;2022-07-09T07:48:43;7.40;;;4.32;;
55362;SDS011;41244;49.242;9.060;2022-07-09T07:51:09;7.57;;;3.58;;
55362;SDS011;41244;49.242;9.060;2022-07-09T07:53:35;5.72;;;3.38;;
55362;SDS011;41244;49.242;9.060;2022-07-09T07:56:05;6.28;;;3.40;;
55362;SDS011;41244;49.242;9.060;2022-07-09T07:58:32;6.40;;;3.90;;
55362;SDS011;41244;49.242;9.060;2022-07-09T08:00:58;4.97;;;3.20;;
55362;SDS011;41244;49.242;9.060;2022-07-09T08:03:24;6.35;;;3.33;;
55362;SDS011;41244;49.242;9.060;2022-07-09T08:05:50;5.32;;;3.10;;
55362;SDS011;41244;49.242;9.060;2022-07-09T08:08:16;5.65;;;2.70;;
55362;SDS011;41244;49.242;9.060;2022-07-09T08:10:46;5.63;;;3.08;;
55362;SDS011;41244;49.242;9.060;2022-07-09T08:13:13;5.68;;;3.03;;
55362;SDS011;41244;49.242;9.060;2022-07-09T08:15:40;6.20;;;3.00;;
55362;SDS011;41244;49.242;9.060;2022-07-09T08:18:07;4.53;;;2.50;;
55362;SDS011;41244;49.242;9.060;2022-07-09T08:20:37;9.05;;;2.75;;
55362;SDS011;41244;49.242;9.060;2022-07-09T08:23:04;4.95;;;2.60;;
55362;SDS011;41244;49.242;9.060;2022-07-09T08:25:30;6.43;;;2.53;;
55362;SDS011;41244;49.242;9.060;2022-07-09T08:27:56;5.50;;;2.40;;
55362;SDS011;41244;49.242;9.060;2022-07-09T08:30:22;3.60;;;2.28;;
55362;SDS011;41244;49.242;9.060;2022-07-09T08:32:48;4.10;;;2.60;;
55362;SDS011;41244;49.242;9.060;2022-07-09T08:35:13;4.25;;;2.72;;
55362;SDS011;41244;49.242;9.060;2022-07-09T08:37:39;3.53;;;2.53;;
55362;SDS011;41244;49.242;9.060;2022-07-09T08:40:06;5.32;;;2.35;;
55362;SDS011;41244;49.242;9.060;2022-07-09T08:42:32;5.65;;;2.38;;
55362;SDS011;41244;49.242;9.060;2022-07-09T08:44:58;3.80;;;2.40;;
55362;SDS011;41244;49.242;9.060;2022-07-09T08:47:24;4.15;;;2.28;;
55362;SDS011;41244;49.242;9.060;2022-07-09T08:49:54;4.15;;;2.38;;
55362;SDS011;41244;49.242;9.060;2022-07-09T08:52:21;4.03;;;2.70;;
55362;SDS011;41244;49.242;9.060;2022-07-09T08:54:48;5.18;;;2.38;;
55362;SDS011;41244;49.242;9.060;2022-07-09T08:57:17;6.35;;;2.70;;
55362;SDS011;41244;49.242;9.060;2022-07-09T08:59:43;5.65;;;2.50;;
55362;SDS011;41244;49.242;9.060;2022-07-09T09:02:09;2.70;;;2.10;;
55362;SDS011;41244;49.242;9.060;2022-07-09T09:04:35;4.18;;;2.40;;
55362;SDS011;41244;49.242;9.060;2022-07-09T09:07:17;3.60;;;2.55;;
55362;SDS011;41244;49.242;9.060;2022-07-09T09:09:46;4.85;;;2.33;;
55362;SDS011;41244;49.242;9.060;2022-07-09T09:12:12;3.70;;;2.42;;
55362;SDS011;41244;49.242;9.060;2022-07-09T09:14:38;5.13;;;2.30;;
55362;SDS011;41244;49.242;9.060;2022-07-09T09:17:08;6.45;;;2.80;;
55362;SDS011;41244;49.242;9.060;2022-07-09T09:19:37;3.40;;;2.28;;
55362;SDS011;41244;49.242;9.060;2022-07-09T09:22:04;5.45;;;2.20;;
55362;SDS011;41244;49.242;9.060;2022-07-09T09:24:31;4.90;;;2.28;;
55362;SDS011;41244;49.242;9.060;2022-07-09T09:26:58;6.40;;;2.70;;
55362;SDS011;41244;49.242;9.060;2022-07-09T09:29:24;6.97;;;2.80;;
55362;SDS011;41244;49.242;9.060;2022-07-09T09:31:51;4.90;;;2.20;;
55362;SDS011;41244;49.242;9.060;2022-07-09T09:34:18;3.25;;;2.17;;
55362;SDS011;41244;49.242;9.060;2022-07-09T09:36:45;3.53;;;2.30;;
55362;SDS011;41244;49.242;9.060;2022-07-09T09:41:56;3.65;;;2.30;;
55362;SDS011;41244;49.242;9.060;2022-07-09T09:46:54;4.18;;;2.17;;
55362;SDS011;41244;49.242;9.060;2022-07-09T09:49:21;3.63;;;2.30;;
55362;SDS011;41244;49.242;9.060;2022-07-09T09:54:19;5.63;;;2.22;;
55362;SDS011;41244;49.242;9.060;2022-07-09T09:56:46;6.38;;;2.30;;
55362;SDS011;41244;49.242;9.060;2022-07-09T09:59:14;2.47;;;2.20;;
55362;SDS011;41244;49.242;9.060;2022-07-09T10:01:40;4.95;;;2.72;;
55362;SDS011;41244;49.242;9.060;2022-07-09T10:04:11;2.83;;;2.35;;
55362;SDS011;41244;49.242;9.060;2022-07-09T10:06:40;5.40;;;2.50;;
55362;SDS011;41244;49.242;9.060;2022-07-09T10:09:06;4.32;;;2.78;;
55362;SDS011;41244;49.242;9.060;2022-07-09T10:11:40;3.17;;;2.40;;
55362;SDS011;41244;49.242;9.060;2022-07-09T10:14:15;3.28;;;2.38;;
55362;SDS011;41244;49.242;9.060;2022-07-09T10:16:42;2.42;;;2.25;;
55362;SDS011;41244;49.242;9.060;2022-07-09T10:19:08;4.03;;;2.50;;
55362;SDS011;41244;49.242;9.060;2022-07-09T10:21:38;3.83;;;2.10;;
55362;SDS011;41244;49.242;9.060;2022-07-09T10:24:06;6.65;;;4.85;;
55362;SDS011;41244;49.242;9.060;2022-07-09T10:29:25;4.60;;;3.07;;
55362;SDS011;41244;49.242;9.060;2022-07-09T10:31:53;4.00;;;2.53;;
55362;SDS011;41244;49.242;9.060;2022-07-09T10:37:29;7.22;;;2.78;;
55362;SDS011;41244;49.242;9.060;2022-07-09T10:42:42;4.03;;;2.78;;
55362;SDS011;41244;49.242;9.060;2022-07-09T10:45:35;2.58;;;2.33;;
55362;SDS011;41244;49.242;9.060;2022-07-09T10:48:11;3.58;;;2.60;;
55362;SDS011;41244;49.242;9.060;2022-07-09T10:50:39;3.53;;;2.40;;
55362;SDS011;41244;49.242;9.060;2022-07-09T10:53:07;5.07;;;2.80;;
55362;SDS011;41244;49.242;9.060;2022-07-09T10:55:34;5.25;;;2.67;;
55362;SDS011;41244;49.242;9.060;2022-07-09T10:58:00;5.28;;;2.80;;
55362;SDS011;41244;49.242;9.060;2022-07-09T11:00:28;4.75;;;2.60;;
55362;SDS011;41244;49.242;9.060;2022-07-09T11:03:02;4.93;;;3.10;;
55362;SDS011;41244;49.242;9.060;2022-07-09T11:05:34;5.95;;;2.83;;
55362;SDS011;41244;49.242;9.060;2022-07-09T11:08:09;6.65;;;2.78;;
55362;SDS011;41244;49.242;9.060;2022-07-09T11:10:36;4.88;;;2.83;;
55362;SDS011;41244;49.242;9.060;2022-07-09T11:13:04;3.65;;;2.83;;
55362;SDS011;41244;49.242;9.060;2022-07-09T11:15:32;4.93;;;3.10;;
55362;SDS011;41244;49.242;9.060;2022-07-09T11:20:29;4.95;;;2.80;;
55362;SDS011;41244;49.242;9.060;2022-07-09T11:23:07;6.15;;;3.70;;
55362;SDS011;41244;49.242;9.060;2022-07-09T11:25:34;4.07;;;2.95;;
55362;SDS011;41244;49.242;9.060;2022-07-09T11:28:00;6.05;;;3.75;;
55362;SDS011;41244;49.242;9.060;2022-07-09T11:30:28;5.32;;;3.17;;
55362;SDS011;41244;49.242;9.060;2022-07-09T11:32:55;3.75;;;3.00;;
55362;SDS011;41244;49.242;9.060;2022-07-09T11:35:34;5.05;;;2.90;;
55362;SDS011;41244;49.242;9.060;2022-07-09T11:38:01;5.63;;;2.90;;
55362;SDS011;41244;49.242;9.060;2022-07-09T11:40:28;8.60;;;3.10;;
55362;SDS011;41244;49.242;9.060;2022-07-09T11:42:55;5.28;;;2.80;;
55362;SDS011;41244;49.242;9.060;2022-07-09T11:48:04;5.50;;;3.28;;
55362;SDS011;41244;49.242;9.060;2022-07-09T11:50:32;4.75;;;3.33;;
55362;SDS011;41244;49.242;9.060;2022-07-09T11:53:05;6.72;;;3.25;;
55362;SDS011;41244;49.242;9.060;2022-07-09T11:55:31;5.28;;;3.30;;
55362;SDS011;41244;49.242;9.060;2022-07-09T11:57:59;5.40;;;3.33;;
55362;SDS011;41244;49.242;9.060;2022-07-09T12:00:32;6.60;;;3.58;;
55362;SDS011;41244;49.242;9.060;2022-07-09T12:02:59;5.85;;;3.63;;
55362;SDS011;41244;49.242;9.060;2022-07-09T12:05:29;7.43;;;3.55;;
55362;SDS011;41244;49.242;9.060;2022-07-09T12:08:00;6.72;;;3.53;;
55362;SDS011;41244;49.242;9.060;2022-07-09T12:10:34;9.57;;;3.13;;
55362;SDS011;41244;49.242;9.060;2022-07-09T12:13:03;6.15;;;3.63;;
55362;SDS011;41244;49.242;9.060;2022-07-09T12:15:30;6.25;;;3.50;;
55362;SDS011;41244;49.242;9.060;2022-07-09T12:17:57;13.27;;;4.65;;
55362;SDS011;41244;49.242;9.060;2022-07-09T12:20:26;5.78;;;3.90;;
55362;SDS011;41244;49.242;9.060;2022-07-09T12:22:56;6.22;;;3.90;;
55362;SDS011;41244;49.242;9.060;2022-07-09T12:25:22;7.97;;;3.72;;
55362;SDS011;41244;49.242;9.060;2022-07-09T12:27:49;4.22;;;3.20;;
55362;SDS011;41244;49.242;9.060;2022-07-09T12:30:15;5.05;;;3.22;;
55362;SDS011;41244;49.242;9.060;2022-07-09T12:32:42;5.97;;;3.42;;
55362;SDS011;41244;49.242;9.060;2022-07-09T12:35:09;5.13;;;3.47;;
55362;SDS011;41244;49.242;9.060;2022-07-09T12:37:35;3.85;;;3.40;;
55362;SDS011;41244;49.242;9.060;2022-07-09T12:40:02;6.80;;;3.40;;
55362;SDS011;41244;49.242;9.060;2022-07-09T12:42:30;4.72;;;3.95;;
55362;SDS011;41244;49.242;9.060;2022-07-09T12:44:56;6.57;;;3.40;;
55362;SDS011;41244;49.242;9.060;2022-07-09T12:47:21;4.10;;;3.13;;
55362;SDS011;41244;49.242;9.060;2022-07-09T12:49:47;8.00;;;4.88;;
55362;SDS011;41244;49.242;9.060;2022-07-09T12:52:13;8.93;;;3.45;;
55362;SDS011;41244;49.242;9.060;2022-07-09T12:54:39;6.13;;;3.88;;
55362;SDS011;41244;49.242;9.060;2022-07-09T12:57:04;5.10;;;3.60;;
55362;SDS011;41244;49.242;9.060;2022-07-09T12:59:30;5.95;;;3.53;;
55362;SDS011;41244;49.242;9.060;2022-07-09T13:01:56;6.38;;;3.30;;
55362;SDS011;41244;49.242;9.060;2022-07-09T13:04:22;4.85;;;3.58;;
55362;SDS011;41244;49.242;9.060;2022-07-09T13:06:48;4.72;;;3.92;;
55362;SDS011;41244;49.242;9.060;2022-07-09T13:09:14;6.63;;;3.83;;
55362;SDS011;41244;49.242;9.060;2022-07-09T13:11:40;6.60;;;3.33;;
55362;SDS011;41244;49.242;9.060;2022-07-09T13:14:06;6.63;;;3.88;;
55362;SDS011;41244;49.242;9.060;2022-07-09T13:16:32;7.32;;;3.78;;
55362;SDS011;41244;49.242;9.060;2022-07-09T13:19:01;5.68;;;3.60;;
55362;SDS011;41244;49.242;9.060;2022-07-09T13:21:27;6.95;;;4.28;;
55362;SDS011;41244;49.242;9.060;2022-07-09T13:23:55;7.65;;;3.42;;
55362;SDS011;41244;49.242;9.060;2022-07-09T13:26:21;8.23;;;3.75;;
55362;SDS011;41244;49.242;9.060;2022-07-09T13:28:47;4.45;;;3.22;;
55362;SDS011;41244;49.242;9.060;2022-07-09T13:31:13;4.53;;;2.90;;
55362;SDS011;41244;49.242;9.060;2022-07-09T13:33:38;6.82;;;3.45;;
55362;SDS011;41244;49.242;9.060;2022-07-09T13:36:05;5.43;;;2.97;;
55362;SDS011;41244;49.242;9.060;2022-07-09T13:38:31;5.55;;;3.17;;
55362;SDS011;41244;49.242;9.060;2022-07-09T13:40:57;5.90;;;3.22;;
55362;SDS011;41244;49.242;9.060;2022-07-09T13:43:24;5.13;;;3.15;;
55362;SDS011;41244;49.242;9.060;2022-07-09T13:45:51;5.65;;;3.40;;
55362;SDS011;41244;49.242;9.060;2022-07-09T13:48:19;7.80;;;3.40;;
55362;SDS011;41244;49.242;9.060;2022-07-09T13:50:45;6.28;;;3.40;;
55362;SDS011;41244;49.242;9.060;2022-07-09T13:53:11;5.80;;;3.60;;
55362;SDS011;41244;49.242;9.060;2022-07-09T13:55:37;6.82;;;3.50;;
55362;SDS011;41244;49.242;9.060;2022-07-09T13:58:03;6.18;;;3.22;;
55362;SDS011;41244;49.242;9.060;2022-07-09T14:00:29;5.57;;;3.30;;
55362;SDS011;41244;49.242;9.060;2022-07-09T14:02:54;7.53;;;3.10;;
55362;SDS011;41244;49.242;9.060;2022-07-09T14:05:20;4.38;;;3.20;;
55362;SDS011;41244;49.242;9.060;2022-07-09T14:07:46;4.82;;;3.25;;
55362;SDS011;41244;49.242;9.060;2022-07-09T14:10:12;4.38;;;3.05;;
55362;SDS011;41244;49.242;9.060;2022-07-09T14:12:38;4.95;;;3.17;;
55362;SDS011;41244;49.242;9.060;2022-07-09T14:15:04;4.50;;;3.00;;
55362;SDS011;41244;49.242;9.060;2022-07-09T14:17:30;3.15;;;2.80;;
55362;SDS011;41244;49.242;9.060;2022-07-09T14:19:56;3.95;;;2.90;;
55362;SDS011;41244;49.242;9.060;2022-07-09T14:22:24;6.35;;;3.08;;
55362;SDS011;41244;49.242;9.060;2022-07-09T14:24:50;10.73;;;3.00;;
55362;SDS011;41244;49.242;9.060;2022-07-09T14:27:16;7.72;;;4.22;;
55362;SDS011;41244;49.242;9.060;2022-07-09T14:29:42;5.97;;;3.72;;
55362;SDS011;41244;49.242;9.060;2022-07-09T14:32:08;6.70;;;2.83;;
55362;SDS011;41244;49.242;9.060;2022-07-09T14:34:34;3.17;;;2.47;;
55362;SDS011;41244;49.242;9.060;2022-07-09T14:37:00;2.95;;;2.47;;
55362;SDS011;41244;49.242;9.060;2022-07-09T14:39:26;2.90;;;2.53;;
55362;SDS011;41244;49.242;9.060;2022-07-09T14:41:52;6.85;;;2.80;;
55362;SDS011;41244;49.242;9.060;2022-07-09T14:44:18;4.38;;;2.67;;
55362;SDS011;41244;49.242;9.060;2022-07-09T14:46:44;4.05;;;2.88;;
55362;SDS011;41244;49.242;9.060;2022-07-09T14:49:10;3.58;;;2.65;;
55362;SDS011;41244;49.242;9.060;2022-07-09T14:51:36;5.50;;;2.90;;
55362;SDS011;41244;49.242;9.060;2022-07-09T14:54:03;5.57;;;2.83;;
55362;SDS011;41244;49.242;9.060;2022-07-09T14:56:29;3.72;;;2.85;;
55362;SDS011;41244;49.242;9.060;2022-07-09T14:58:55;3.35;;;2.60;;
55362;SDS011;41244;49.242;9.060;2022-07-09T15:01:21;5.30;;;2.65;;
55362;SDS011;41244;49.242;9.060;2022-07-09T15:03:47;5.20;;;2.63;;
55362;SDS011;41244;49.242;9.060;2022-07-09T15:06:13;3.00;;;2.70;;